sensor_id;sensor_type;location;lat;lon;timestamp;P1;durP1;ratioP1;P2;durP2;ratioP2
23113;SDS011;11726;50.122;8.832;2023-03-04T00:01:13;28.88;;;15.30;;
23113;SDS011;11726;50.122;8.832;2023-03-04T00:03:41;29.92;;;15.82;;
23113;SDS011;11726;50.122;8.832;2023-03-04T00:06:07;30.80;;;16.35;;
23113;SDS011;11726;50.122;8.832;2023-03-04T00:08:34;28.30;;;15.20;;
23113;SDS011;11726;50.122;8.832;2023-03-04T00:11:00;27.85;;;14.82;;
23113;SDS011;11726;50.122;8.832;2023-03-04T00:13:27;31.55;;;15.95;;
23113;SDS011;11726;50.122;8.832;2023-03-04T00:15:53;28.50;;;15.10;;
23113;SDS011;11726;50.122;8.832;2023-03-04T00:18:20;29.88;;;16.15;;
23113;SDS011;11726;50.122;8.832;2023-03-04T00:20:47;27.23;;;14.80;;
23113;SDS011;11726;50.122;8.832;2023-03-04T00:23:14;30.35;;;16.25;;
23113;SDS011;11726;50.122;8.832;2023-03-04T00:25:41;28.55;;;14.85;;
23113;SDS011;11726;50.122;8.832;2023-03-04T00:28:08;31.13;;;16.27;;
23113;SDS011;11726;50.122;8.832;2023-03-04T00:30:35;31.02;;;16.10;;
23113;SDS011;11726;50.122;8.832;2023-03-04T00:33:02;27.55;;;15.57;;
23113;SDS011;11726;50.122;8.832;2023-03-04T00:35:28;30.67;;;16.25;;
23113;SDS011;11726;50.122;8.832;2023-03-04T00:37:55;29.10;;;15.35;;
23113;SDS011;11726;50.122;8.832;2023-03-04T00:40:22;28.92;;;16.20;;
23113;SDS011;11726;50.122;8.832;2023-03-04T00:42:48;28.02;;;15.48;;
23113;SDS011;11726;50.122;8.832;2023-03-04T00:45:15;29.45;;;15.60;;
23113;SDS011;11726;50.122;8.832;2023-03-04T00:47:42;28.85;;;15.95;;
23113;SDS011;11726;50.122;8.832;2023-03-04T00:50:09;29.30;;;15.15;;
23113;SDS011;11726;50.122;8.832;2023-03-04T00:52:36;28.83;;;15.68;;
23113;SDS011;11726;50.122;8.832;2023-03-04T00:55:03;30.42;;;15.82;;
23113;SDS011;11726;50.122;8.832;2023-03-04T00:57:31;30.83;;;15.90;;
23113;SDS011;11726;50.122;8.832;2023-03-04T00:59:58;31.85;;;16.90;;
23113;SDS011;11726;50.122;8.832;2023-03-04T01:02:24;28.67;;;15.25;;
23113;SDS011;11726;50.122;8.832;2023-03-04T01:04:51;27.88;;;15.40;;
23113;SDS011;11726;50.122;8.832;2023-03-04T01:07:18;30.15;;;16.35;;
23113;SDS011;11726;50.122;8.832;2023-03-04T01:09:44;30.92;;;16.40;;
23113;SDS011;11726;50.122;8.832;2023-03-04T01:12:11;31.88;;;16.50;;
23113;SDS011;11726;50.122;8.832;2023-03-04T01:14:38;31.13;;;16.27;;
23113;SDS011;11726;50.122;8.832;2023-03-04T01:17:04;30.70;;;16.42;;
23113;SDS011;11726;50.122;8.832;2023-03-04T01:19:31;29.88;;;16.27;;
23113;SDS011;11726;50.122;8.832;2023-03-04T01:21:57;30.13;;;16.17;;
23113;SDS011;11726;50.122;8.832;2023-03-04T01:24:24;29.13;;;16.42;;
23113;SDS011;11726;50.122;8.832;2023-03-04T01:26:51;28.20;;;16.17;;
23113;SDS011;11726;50.122;8.832;2023-03-04T01:29:17;28.55;;;16.08;;
23113;SDS011;11726;50.122;8.832;2023-03-04T01:31:44;28.75;;;16.45;;
23113;SDS011;11726;50.122;8.832;2023-03-04T01:34:10;31.10;;;16.80;;
23113;SDS011;11726;50.122;8.832;2023-03-04T01:36:37;32.83;;;17.55;;
23113;SDS011;11726;50.122;8.832;2023-03-04T01:39:04;33.92;;;16.17;;
23113;SDS011;11726;50.122;8.832;2023-03-04T01:41:30;27.77;;;15.32;;
23113;SDS011;11726;50.122;8.832;2023-03-04T01:43:58;26.60;;;14.75;;
23113;SDS011;11726;50.122;8.832;2023-03-04T01:46:27;29.35;;;16.52;;
23113;SDS011;11726;50.122;8.832;2023-03-04T01:48:56;27.55;;;15.48;;
23113;SDS011;11726;50.122;8.832;2023-03-04T01:51:24;28.02;;;16.10;;
23113;SDS011;11726;50.122;8.832;2023-03-04T01:53:50;29.30;;;15.80;;
23113;SDS011;11726;50.122;8.832;2023-03-04T01:56:24;30.75;;;16.35;;
23113;SDS011;11726;50.122;8.832;2023-03-04T02:01:54;30.60;;;16.25;;
23113;SDS011;11726;50.122;8.832;2023-03-04T02:04:28;29.75;;;16.63;;
23113;SDS011;11726;50.122;8.832;2023-03-04T02:06:57;30.52;;;16.20;;
23113;SDS011;11726;50.122;8.832;2023-03-04T02:09:25;31.55;;;16.83;;
23113;SDS011;11726;50.122;8.832;2023-03-04T02:11:53;29.52;;;16.05;;
23113;SDS011;11726;50.122;8.832;2023-03-04T02:14:20;28.48;;;15.82;;
23113;SDS011;11726;50.122;8.832;2023-03-04T02:16:48;26.63;;;15.00;;
23113;SDS011;11726;50.122;8.832;2023-03-04T02:19:26;29.42;;;15.85;;
23113;SDS011;11726;50.122;8.832;2023-03-04T02:22:16;29.98;;;15.95;;
23113;SDS011;11726;50.122;8.832;2023-03-04T02:24:56;29.17;;;15.55;;
23113;SDS011;11726;50.122;8.832;2023-03-04T02:27:36;30.77;;;16.45;;
23113;SDS011;11726;50.122;8.832;2023-03-04T02:30:02;30.25;;;17.17;;
23113;SDS011;11726;50.122;8.832;2023-03-04T02:32:29;28.23;;;16.20;;
23113;SDS011;11726;50.122;8.832;2023-03-04T02:34:56;32.28;;;16.67;;
23113;SDS011;11726;50.122;8.832;2023-03-04T02:37:23;32.72;;;16.73;;
23113;SDS011;11726;50.122;8.832;2023-03-04T02:39:50;31.52;;;17.10;;
23113;SDS011;11726;50.122;8.832;2023-03-04T02:42:16;28.58;;;15.27;;
23113;SDS011;11726;50.122;8.832;2023-03-04T02:44:44;32.03;;;17.25;;
23113;SDS011;11726;50.122;8.832;2023-03-04T02:47:14;31.38;;;16.77;;
23113;SDS011;11726;50.122;8.832;2023-03-04T02:49:45;29.20;;;16.20;;
23113;SDS011;11726;50.122;8.832;2023-03-04T02:52:13;29.27;;;16.75;;
23113;SDS011;11726;50.122;8.832;2023-03-04T02:54:44;29.60;;;15.88;;
23113;SDS011;11726;50.122;8.832;2023-03-04T02:57:11;31.58;;;16.60;;
23113;SDS011;11726;50.122;8.832;2023-03-04T02:59:39;31.45;;;16.95;;
23113;SDS011;11726;50.122;8.832;2023-03-04T03:02:07;34.13;;;17.92;;
23113;SDS011;11726;50.122;8.832;2023-03-04T03:04:35;30.58;;;16.10;;
23113;SDS011;11726;50.122;8.832;2023-03-04T03:07:03;30.70;;;16.80;;
23113;SDS011;11726;50.122;8.832;2023-03-04T03:09:30;32.35;;;18.15;;
23113;SDS011;11726;50.122;8.832;2023-03-04T03:11:57;33.67;;;18.10;;
23113;SDS011;11726;50.122;8.832;2023-03-04T03:14:23;32.03;;;17.63;;
23113;SDS011;11726;50.122;8.832;2023-03-04T03:16:50;35.63;;;18.63;;
23113;SDS011;11726;50.122;8.832;2023-03-04T03:19:17;31.30;;;17.52;;
23113;SDS011;11726;50.122;8.832;2023-03-04T03:21:43;35.25;;;18.23;;
23113;SDS011;11726;50.122;8.832;2023-03-04T03:24:10;31.17;;;16.50;;
23113;SDS011;11726;50.122;8.832;2023-03-04T03:26:37;31.25;;;17.52;;
23113;SDS011;11726;50.122;8.832;2023-03-04T03:29:05;30.55;;;16.45;;
23113;SDS011;11726;50.122;8.832;2023-03-04T03:31:31;29.95;;;15.90;;
23113;SDS011;11726;50.122;8.832;2023-03-04T03:33:58;31.48;;;16.83;;
23113;SDS011;11726;50.122;8.832;2023-03-04T03:36:25;31.98;;;17.48;;
23113;SDS011;11726;50.122;8.832;2023-03-04T03:38:51;32.90;;;16.90;;
23113;SDS011;11726;50.122;8.832;2023-03-04T03:41:18;31.23;;;17.05;;
23113;SDS011;11726;50.122;8.832;2023-03-04T03:43:45;26.98;;;15.80;;
23113;SDS011;11726;50.122;8.832;2023-03-04T03:46:11;31.98;;;17.45;;
23113;SDS011;11726;50.122;8.832;2023-03-04T03:48:38;30.60;;;16.27;;
23113;SDS011;11726;50.122;8.832;2023-03-04T03:51:05;29.35;;;16.35;;
23113;SDS011;11726;50.122;8.832;2023-03-04T03:53:31;31.40;;;16.70;;
23113;SDS011;11726;50.122;8.832;2023-03-04T03:55:58;30.17;;;16.20;;
23113;SDS011;11726;50.122;8.832;2023-03-04T03:58:24;28.67;;;15.93;;
23113;SDS011;11726;50.122;8.832;2023-03-04T04:00:52;30.23;;;16.58;;
23113;SDS011;11726;50.122;8.832;2023-03-04T04:03:20;27.70;;;15.43;;
23113;SDS011;11726;50.122;8.832;2023-03-04T04:05:47;31.90;;;16.88;;
23113;SDS011;11726;50.122;8.832;2023-03-04T04:08:14;31.63;;;17.42;;
23113;SDS011;11726;50.122;8.832;2023-03-04T04:10:42;32.13;;;17.63;;
23113;SDS011;11726;50.122;8.832;2023-03-04T04:13:09;30.38;;;17.60;;
23113;SDS011;11726;50.122;8.832;2023-03-04T04:15:36;32.80;;;17.60;;
23113;SDS011;11726;50.122;8.832;2023-03-04T04:18:04;29.52;;;17.00;;
23113;SDS011;11726;50.122;8.832;2023-03-04T04:20:32;34.70;;;16.95;;
23113;SDS011;11726;50.122;8.832;2023-03-04T04:22:59;37.10;;;18.73;;
23113;SDS011;11726;50.122;8.832;2023-03-04T04:25:25;33.70;;;18.23;;
23113;SDS011;11726;50.122;8.832;2023-03-04T04:27:52;31.33;;;17.23;;
23113;SDS011;11726;50.122;8.832;2023-03-04T04:30:19;31.50;;;16.98;;
23113;SDS011;11726;50.122;8.832;2023-03-04T04:32:45;33.50;;;17.98;;
23113;SDS011;11726;50.122;8.832;2023-03-04T04:35:12;36.78;;;18.75;;
23113;SDS011;11726;50.122;8.832;2023-03-04T04:37:39;32.95;;;17.55;;
23113;SDS011;11726;50.122;8.832;2023-03-04T04:40:05;33.92;;;18.08;;
23113;SDS011;11726;50.122;8.832;2023-03-04T04:42:33;37.95;;;18.75;;
23113;SDS011;11726;50.122;8.832;2023-03-04T04:44:59;33.15;;;17.30;;
23113;SDS011;11726;50.122;8.832;2023-03-04T04:47:26;35.10;;;19.10;;
23113;SDS011;11726;50.122;8.832;2023-03-04T04:49:53;33.63;;;18.15;;
23113;SDS011;11726;50.122;8.832;2023-03-04T04:52:20;33.85;;;18.30;;
23113;SDS011;11726;50.122;8.832;2023-03-04T04:54:46;37.85;;;19.67;;
23113;SDS011;11726;50.122;8.832;2023-03-04T04:57:13;36.70;;;19.58;;
23113;SDS011;11726;50.122;8.832;2023-03-04T04:59:39;31.13;;;17.92;;
23113;SDS011;11726;50.122;8.832;2023-03-04T05:02:06;35.70;;;19.13;;
23113;SDS011;11726;50.122;8.832;2023-03-04T05:04:33;32.80;;;18.15;;
23113;SDS011;11726;50.122;8.832;2023-03-04T05:06:59;35.47;;;19.40;;
23113;SDS011;11726;50.122;8.832;2023-03-04T05:09:26;36.00;;;19.20;;
23113;SDS011;11726;50.122;8.832;2023-03-04T05:11:52;39.15;;;20.17;;
23113;SDS011;11726;50.122;8.832;2023-03-04T05:14:19;33.50;;;18.85;;
23113;SDS011;11726;50.122;8.832;2023-03-04T05:16:47;37.90;;;19.42;;
23113;SDS011;11726;50.122;8.832;2023-03-04T05:19:14;40.45;;;20.20;;
23113;SDS011;11726;50.122;8.832;2023-03-04T05:21:40;34.97;;;19.08;;
23113;SDS011;11726;50.122;8.832;2023-03-04T05:24:07;37.70;;;19.95;;
23113;SDS011;11726;50.122;8.832;2023-03-04T05:26:34;36.67;;;19.00;;
23113;SDS011;11726;50.122;8.832;2023-03-04T05:29:00;35.90;;;20.50;;
23113;SDS011;11726;50.122;8.832;2023-03-04T05:31:28;38.63;;;20.67;;
23113;SDS011;11726;50.122;8.832;2023-03-04T05:33:54;37.45;;;20.38;;
23113;SDS011;11726;50.122;8.832;2023-03-04T05:36:21;37.88;;;20.27;;
23113;SDS011;11726;50.122;8.832;2023-03-04T05:38:48;40.38;;;20.95;;
23113;SDS011;11726;50.122;8.832;2023-03-04T05:41:14;41.20;;;21.70;;
23113;SDS011;11726;50.122;8.832;2023-03-04T05:43:44;40.25;;;21.13;;
23113;SDS011;11726;50.122;8.832;2023-03-04T05:46:14;37.53;;;19.77;;
23113;SDS011;11726;50.122;8.832;2023-03-04T05:48:41;39.95;;;21.35;;
23113;SDS011;11726;50.122;8.832;2023-03-04T05:51:09;41.38;;;21.52;;
23113;SDS011;11726;50.122;8.832;2023-03-04T05:53:36;38.08;;;20.25;;
23113;SDS011;11726;50.122;8.832;2023-03-04T05:56:06;36.17;;;20.40;;
23113;SDS011;11726;50.122;8.832;2023-03-04T05:58:37;38.33;;;20.73;;
23113;SDS011;11726;50.122;8.832;2023-03-04T06:01:04;40.85;;;21.63;;
23113;SDS011;11726;50.122;8.832;2023-03-04T06:03:31;43.35;;;21.75;;
23113;SDS011;11726;50.122;8.832;2023-03-04T06:05:58;43.15;;;21.45;;
23113;SDS011;11726;50.122;8.832;2023-03-04T06:08:25;38.35;;;20.50;;
23113;SDS011;11726;50.122;8.832;2023-03-04T06:10:53;35.75;;;20.10;;
23113;SDS011;11726;50.122;8.832;2023-03-04T06:13:21;40.60;;;20.10;;
23113;SDS011;11726;50.122;8.832;2023-03-04T06:15:52;42.60;;;22.13;;
23113;SDS011;11726;50.122;8.832;2023-03-04T06:18:23;39.88;;;20.85;;
23113;SDS011;11726;50.122;8.832;2023-03-04T06:20:54;38.30;;;20.38;;
23113;SDS011;11726;50.122;8.832;2023-03-04T06:23:23;40.15;;;21.38;;
23113;SDS011;11726;50.122;8.832;2023-03-04T06:25:51;41.83;;;21.63;;
23113;SDS011;11726;50.122;8.832;2023-03-04T06:28:21;37.35;;;20.30;;
23113;SDS011;11726;50.122;8.832;2023-03-04T06:30:50;39.33;;;20.77;;
23113;SDS011;11726;50.122;8.832;2023-03-04T06:33:18;44.33;;;21.70;;
23113;SDS011;11726;50.122;8.832;2023-03-04T06:35:45;39.28;;;21.48;;
23113;SDS011;11726;50.122;8.832;2023-03-04T06:38:12;40.63;;;21.60;;
23113;SDS011;11726;50.122;8.832;2023-03-04T06:40:38;39.45;;;20.85;;
23113;SDS011;11726;50.122;8.832;2023-03-04T06:43:05;38.92;;;20.25;;
23113;SDS011;11726;50.122;8.832;2023-03-04T06:45:32;43.13;;;23.13;;
23113;SDS011;11726;50.122;8.832;2023-03-04T06:47:59;43.92;;;21.83;;
23113;SDS011;11726;50.122;8.832;2023-03-04T06:50:25;44.92;;;22.65;;
23113;SDS011;11726;50.122;8.832;2023-03-04T06:52:54;41.30;;;21.90;;
23113;SDS011;11726;50.122;8.832;2023-03-04T06:55:22;46.05;;;23.48;;
23113;SDS011;11726;50.122;8.832;2023-03-04T06:57:49;38.95;;;21.58;;
23113;SDS011;11726;50.122;8.832;2023-03-04T07:00:16;44.67;;;22.60;;
23113;SDS011;11726;50.122;8.832;2023-03-04T07:02:44;44.28;;;23.25;;
23113;SDS011;11726;50.122;8.832;2023-03-04T07:05:11;45.30;;;22.42;;
23113;SDS011;11726;50.122;8.832;2023-03-04T07:07:37;42.08;;;23.08;;
23113;SDS011;11726;50.122;8.832;2023-03-04T07:10:04;44.30;;;22.58;;
23113;SDS011;11726;50.122;8.832;2023-03-04T07:12:31;40.55;;;22.05;;
23113;SDS011;11726;50.122;8.832;2023-03-04T07:14:58;47.50;;;23.98;;
23113;SDS011;11726;50.122;8.832;2023-03-04T07:17:24;45.55;;;23.52;;
23113;SDS011;11726;50.122;8.832;2023-03-04T07:19:51;43.53;;;23.55;;
23113;SDS011;11726;50.122;8.832;2023-03-04T07:22:18;43.28;;;23.67;;
23113;SDS011;11726;50.122;8.832;2023-03-04T07:31:36;45.22;;;22.48;;
23113;SDS011;11726;50.122;8.832;2023-03-04T07:34:06;45.78;;;23.42;;
23113;SDS011;11726;50.122;8.832;2023-03-04T07:36:35;40.65;;;21.40;;
23113;SDS011;11726;50.122;8.832;2023-03-04T07:39:02;42.53;;;22.50;;
23113;SDS011;11726;50.122;8.832;2023-03-04T07:41:29;43.30;;;23.33;;
23113;SDS011;11726;50.122;8.832;2023-03-04T07:43:56;46.35;;;23.92;;
23113;SDS011;11726;50.122;8.832;2023-03-04T07:46:24;42.80;;;22.67;;
23113;SDS011;11726;50.122;8.832;2023-03-04T07:48:51;42.33;;;23.30;;
23113;SDS011;11726;50.122;8.832;2023-03-04T07:51:18;39.90;;;21.45;;
23113;SDS011;11726;50.122;8.832;2023-03-04T07:53:47;39.72;;;21.58;;
23113;SDS011;11726;50.122;8.832;2023-03-04T07:56:19;38.60;;;21.58;;
23113;SDS011;11726;50.122;8.832;2023-03-04T07:58:48;33.38;;;20.02;;
23113;SDS011;11726;50.122;8.832;2023-03-04T08:01:16;36.10;;;20.67;;
23113;SDS011;11726;50.122;8.832;2023-03-04T08:03:44;37.17;;;21.67;;
23113;SDS011;11726;50.122;8.832;2023-03-04T08:06:12;38.65;;;20.92;;
23113;SDS011;11726;50.122;8.832;2023-03-04T08:08:40;29.45;;;16.40;;
23113;SDS011;11726;50.122;8.832;2023-03-04T08:11:10;32.17;;;15.77;;
23113;SDS011;11726;50.122;8.832;2023-03-04T08:13:38;28.13;;;16.45;;
23113;SDS011;11726;50.122;8.832;2023-03-04T08:16:05;31.83;;;16.85;;
23113;SDS011;11726;50.122;8.832;2023-03-04T08:18:33;27.85;;;16.27;;
23113;SDS011;11726;50.122;8.832;2023-03-04T08:21:00;27.38;;;16.30;;
23113;SDS011;11726;50.122;8.832;2023-03-04T08:23:26;27.92;;;16.08;;
23113;SDS011;11726;50.122;8.832;2023-03-04T08:25:54;25.15;;;15.20;;
23113;SDS011;11726;50.122;8.832;2023-03-04T08:28:20;29.73;;;15.38;;
23113;SDS011;11726;50.122;8.832;2023-03-04T08:30:51;26.30;;;14.98;;
23113;SDS011;11726;50.122;8.832;2023-03-04T08:33:19;29.65;;;15.63;;
23113;SDS011;11726;50.122;8.832;2023-03-04T08:35:46;25.63;;;14.43;;
23113;SDS011;11726;50.122;8.832;2023-03-04T08:38:13;29.17;;;14.55;;
23113;SDS011;11726;50.122;8.832;2023-03-04T08:40:39;31.73;;;13.00;;
23113;SDS011;11726;50.122;8.832;2023-03-04T08:43:06;26.75;;;12.88;;
23113;SDS011;11726;50.122;8.832;2023-03-04T08:45:33;24.42;;;11.75;;
23113;SDS011;11726;50.122;8.832;2023-03-04T08:48:00;22.02;;;12.48;;
23113;SDS011;11726;50.122;8.832;2023-03-04T08:50:27;29.65;;;12.55;;
23113;SDS011;11726;50.122;8.832;2023-03-04T08:52:54;25.88;;;11.80;;
23113;SDS011;11726;50.122;8.832;2023-03-04T08:55:21;24.70;;;11.30;;
23113;SDS011;11726;50.122;8.832;2023-03-04T08:57:47;23.85;;;11.18;;
23113;SDS011;11726;50.122;8.832;2023-03-04T09:00:14;25.45;;;11.85;;
23113;SDS011;11726;50.122;8.832;2023-03-04T09:02:41;21.55;;;11.07;;
23113;SDS011;11726;50.122;8.832;2023-03-04T09:05:08;22.30;;;10.88;;
23113;SDS011;11726;50.122;8.832;2023-03-04T09:07:34;20.60;;;9.60;;
23113;SDS011;11726;50.122;8.832;2023-03-04T09:10:01;24.60;;;10.43;;
23113;SDS011;11726;50.122;8.832;2023-03-04T09:12:28;26.73;;;11.68;;
23113;SDS011;11726;50.122;8.832;2023-03-04T09:14:55;23.40;;;11.48;;
23113;SDS011;11726;50.122;8.832;2023-03-04T09:17:36;24.08;;;11.07;;
23113;SDS011;11726;50.122;8.832;2023-03-04T09:20:04;23.63;;;11.50;;
23113;SDS011;11726;50.122;8.832;2023-03-04T09:22:33;26.17;;;11.00;;
23113;SDS011;11726;50.122;8.832;2023-03-04T09:24:59;25.17;;;10.88;;
23113;SDS011;11726;50.122;8.832;2023-03-04T09:27:26;24.15;;;11.32;;
23113;SDS011;11726;50.122;8.832;2023-03-04T09:29:53;22.45;;;11.07;;
23113;SDS011;11726;50.122;8.832;2023-03-04T09:32:19;24.17;;;10.40;;
23113;SDS011;11726;50.122;8.832;2023-03-04T09:34:46;24.95;;;10.68;;
23113;SDS011;11726;50.122;8.832;2023-03-04T09:37:12;21.73;;;9.82;;
23113;SDS011;11726;50.122;8.832;2023-03-04T09:39:39;24.20;;;10.70;;
23113;SDS011;11726;50.122;8.832;2023-03-04T09:42:06;24.95;;;10.60;;
23113;SDS011;11726;50.122;8.832;2023-03-04T09:44:36;27.17;;;10.80;;
23113;SDS011;11726;50.122;8.832;2023-03-04T09:47:16;27.80;;;11.23;;
23113;SDS011;11726;50.122;8.832;2023-03-04T09:49:57;23.45;;;10.13;;
23113;SDS011;11726;50.122;8.832;2023-03-04T09:55:49;29.75;;;11.38;;
23113;SDS011;11726;50.122;8.832;2023-03-04T09:58:14;21.17;;;10.00;;
23113;SDS011;11726;50.122;8.832;2023-03-04T10:00:55;26.38;;;9.88;;
23113;SDS011;11726;50.122;8.832;2023-03-04T10:06:24;22.33;;;9.20;;
23113;SDS011;11726;50.122;8.832;2023-03-04T10:11:54;21.17;;;9.43;;
23113;SDS011;11726;50.122;8.832;2023-03-04T10:14:28;17.80;;;8.95;;
23113;SDS011;11726;50.122;8.832;2023-03-04T10:22:26;19.70;;;8.52;;
23113;SDS011;11726;50.122;8.832;2023-03-04T10:25:12;23.70;;;9.18;;
23113;SDS011;11726;50.122;8.832;2023-03-04T10:33:13;21.17;;;8.43;;
23113;SDS011;11726;50.122;8.832;2023-03-04T10:35:46;21.88;;;9.25;;
23113;SDS011;11726;50.122;8.832;2023-03-04T10:38:17;21.90;;;8.70;;
23113;SDS011;11726;50.122;8.832;2023-03-04T10:40:45;27.20;;;9.57;;
23113;SDS011;11726;50.122;8.832;2023-03-04T10:43:20;22.15;;;8.65;;
23113;SDS011;11726;50.122;8.832;2023-03-04T10:45:47;20.15;;;8.90;;
23113;SDS011;11726;50.122;8.832;2023-03-04T10:48:29;23.95;;;9.18;;
23113;SDS011;11726;50.122;8.832;2023-03-04T10:51:10;18.17;;;8.50;;
23113;SDS011;11726;50.122;8.832;2023-03-04T10:53:39;23.15;;;8.63;;
23113;SDS011;11726;50.122;8.832;2023-03-04T11:01:57;21.42;;;8.15;;
23113;SDS011;11726;50.122;8.832;2023-03-04T11:04:26;21.40;;;8.90;;
23113;SDS011;11726;50.122;8.832;2023-03-04T11:06:57;21.55;;;8.98;;
23113;SDS011;11726;50.122;8.832;2023-03-04T11:09:28;20.40;;;9.55;;
23113;SDS011;11726;50.122;8.832;2023-03-04T11:12:00;19.33;;;8.55;;
23113;SDS011;11726;50.122;8.832;2023-03-04T11:14:34;23.20;;;8.38;;
23113;SDS011;11726;50.122;8.832;2023-03-04T11:17:15;23.42;;;9.30;;
23113;SDS011;11726;50.122;8.832;2023-03-04T11:19:55;21.42;;;8.40;;
23113;SDS011;11726;50.122;8.832;2023-03-04T11:22:29;21.30;;;8.45;;
23113;SDS011;11726;50.122;8.832;2023-03-04T11:24:58;18.85;;;8.15;;
23113;SDS011;11726;50.122;8.832;2023-03-04T11:27:33;18.73;;;8.23;;
23113;SDS011;11726;50.122;8.832;2023-03-04T11:30:18;17.98;;;8.07;;
23113;SDS011;11726;50.122;8.832;2023-03-04T11:33:11;15.27;;;7.63;;
23113;SDS011;11726;50.122;8.832;2023-03-04T11:35:47;20.38;;;8.00;;
23113;SDS011;11726;50.122;8.832;2023-03-04T11:38:22;19.38;;;8.40;;
23113;SDS011;11726;50.122;8.832;2023-03-04T11:40:57;20.45;;;8.50;;
23113;SDS011;11726;50.122;8.832;2023-03-04T11:43:42;18.33;;;7.30;;
23113;SDS011;11726;50.122;8.832;2023-03-04T11:49:06;22.15;;;8.60;;
23113;SDS011;11726;50.122;8.832;2023-03-04T11:52:06;18.48;;;7.45;;
23113;SDS011;11726;50.122;8.832;2023-03-04T12:00:19;20.45;;;7.30;;
23113;SDS011;11726;50.122;8.832;2023-03-04T12:12:17;23.42;;;9.35;;
23113;SDS011;11726;50.122;8.832;2023-03-04T12:22:45;14.82;;;6.78;;
23113;SDS011;11726;50.122;8.832;2023-03-04T12:26:00;14.85;;;5.97;;
23113;SDS011;11726;50.122;8.832;2023-03-04T12:36:06;15.80;;;6.68;;
23113;SDS011;11726;50.122;8.832;2023-03-04T12:38:59;15.40;;;6.65;;
23113;SDS011;11726;50.122;8.832;2023-03-04T12:48:00;18.03;;;7.10;;
23113;SDS011;11726;50.122;8.832;2023-03-04T12:50:56;14.90;;;6.00;;
23113;SDS011;11726;50.122;8.832;2023-03-04T12:56:24;14.40;;;5.57;;
23113;SDS011;11726;50.122;8.832;2023-03-04T12:59:16;12.70;;;5.78;;
23113;SDS011;11726;50.122;8.832;2023-03-04T13:01:47;11.63;;;5.28;;
23113;SDS011;11726;50.122;8.832;2023-03-04T13:04:52;14.88;;;5.22;;
23113;SDS011;11726;50.122;8.832;2023-03-04T13:07:36;11.10;;;4.82;;
23113;SDS011;11726;50.122;8.832;2023-03-04T13:10:18;10.93;;;4.82;;
23113;SDS011;11726;50.122;8.832;2023-03-04T13:12:55;9.73;;;5.05;;
23113;SDS011;11726;50.122;8.832;2023-03-04T13:17:56;10.32;;;4.65;;
23113;SDS011;11726;50.122;8.832;2023-03-04T13:23:01;12.15;;;4.43;;
23113;SDS011;11726;50.122;8.832;2023-03-04T13:25:34;13.20;;;4.57;;
23113;SDS011;11726;50.122;8.832;2023-03-04T13:28:12;8.40;;;4.10;;
23113;SDS011;11726;50.122;8.832;2023-03-04T13:43:26;6.13;;;3.38;;
23113;SDS011;11726;50.122;8.832;2023-03-04T13:51:26;8.55;;;3.75;;
23113;SDS011;11726;50.122;8.832;2023-03-04T13:56:29;5.97;;;3.10;;
23113;SDS011;11726;50.122;8.832;2023-03-04T14:04:17;6.68;;;3.38;;
23113;SDS011;11726;50.122;8.832;2023-03-04T14:06:48;7.28;;;3.47;;
23113;SDS011;11726;50.122;8.832;2023-03-04T14:09:19;10.30;;;4.40;;
23113;SDS011;11726;50.122;8.832;2023-03-04T14:11:48;11.45;;;5.18;;
23113;SDS011;11726;50.122;8.832;2023-03-04T14:14:17;11.77;;;5.32;;
23113;SDS011;11726;50.122;8.832;2023-03-04T14:16:51;14.48;;;5.53;;
23113;SDS011;11726;50.122;8.832;2023-03-04T14:21:55;12.50;;;5.23;;
23113;SDS011;11726;50.122;8.832;2023-03-04T14:24:24;16.95;;;7.05;;
23113;SDS011;11726;50.122;8.832;2023-03-04T14:27:11;14.60;;;5.68;;
23113;SDS011;11726;50.122;8.832;2023-03-04T14:29:39;24.08;;;13.32;;
23113;SDS011;11726;50.122;8.832;2023-03-04T14:32:06;12.90;;;5.00;;
23113;SDS011;11726;50.122;8.832;2023-03-04T14:34:34;14.45;;;6.10;;
23113;SDS011;11726;50.122;8.832;2023-03-04T14:37:03;14.48;;;6.03;;
23113;SDS011;11726;50.122;8.832;2023-03-04T14:39:49;12.98;;;5.25;;
23113;SDS011;11726;50.122;8.832;2023-03-04T14:42:20;24.77;;;10.10;;
23113;SDS011;11726;50.122;8.832;2023-03-04T14:44:52;15.75;;;6.28;;
23113;SDS011;11726;50.122;8.832;2023-03-04T14:47:23;19.23;;;8.18;;
23113;SDS011;11726;50.122;8.832;2023-03-04T14:49:56;27.88;;;12.23;;
23113;SDS011;11726;50.122;8.832;2023-03-04T14:52:29;19.90;;;7.97;;
23113;SDS011;11726;50.122;8.832;2023-03-04T14:55:15;12.07;;;5.95;;
23113;SDS011;11726;50.122;8.832;2023-03-04T14:57:46;10.48;;;5.30;;
23113;SDS011;11726;50.122;8.832;2023-03-04T15:00:30;14.98;;;6.30;;
23113;SDS011;11726;50.122;8.832;2023-03-04T15:02:59;12.35;;;5.93;;
23113;SDS011;11726;50.122;8.832;2023-03-04T15:05:32;11.98;;;5.40;;
23113;SDS011;11726;50.122;8.832;2023-03-04T15:08:01;16.10;;;5.88;;
23113;SDS011;11726;50.122;8.832;2023-03-04T15:10:51;11.65;;;6.07;;
23113;SDS011;11726;50.122;8.832;2023-03-04T15:13:49;12.93;;;6.78;;
23113;SDS011;11726;50.122;8.832;2023-03-04T15:16:18;10.85;;;6.05;;
23113;SDS011;11726;50.122;8.832;2023-03-04T15:18:52;16.67;;;7.55;;
23113;SDS011;11726;50.122;8.832;2023-03-04T15:21:48;10.07;;;5.47;;
23113;SDS011;11726;50.122;8.832;2023-03-04T15:24:15;10.07;;;5.57;;
23113;SDS011;11726;50.122;8.832;2023-03-04T15:26:42;12.55;;;5.60;;
23113;SDS011;11726;50.122;8.832;2023-03-04T15:29:15;10.90;;;5.38;;
23113;SDS011;11726;50.122;8.832;2023-03-04T15:31:44;11.55;;;5.88;;
23113;SDS011;11726;50.122;8.832;2023-03-04T15:34:14;12.52;;;6.13;;
23113;SDS011;11726;50.122;8.832;2023-03-04T15:36:43;12.63;;;6.07;;
23113;SDS011;11726;50.122;8.832;2023-03-04T15:39:12;13.50;;;6.57;;
23113;SDS011;11726;50.122;8.832;2023-03-04T15:41:41;15.63;;;6.45;;
23113;SDS011;11726;50.122;8.832;2023-03-04T15:44:08;12.70;;;6.80;;
23113;SDS011;11726;50.122;8.832;2023-03-04T15:46:36;10.63;;;6.00;;
23113;SDS011;11726;50.122;8.832;2023-03-04T15:49:03;10.65;;;5.80;;
23113;SDS011;11726;50.122;8.832;2023-03-04T15:51:30;12.10;;;6.32;;
23113;SDS011;11726;50.122;8.832;2023-03-04T15:53:57;14.88;;;8.57;;
23113;SDS011;11726;50.122;8.832;2023-03-04T15:56:25;15.98;;;9.20;;
23113;SDS011;11726;50.122;8.832;2023-03-04T15:59:03;17.95;;;9.85;;
23113;SDS011;11726;50.122;8.832;2023-03-04T16:01:36;10.77;;;7.50;;
23113;SDS011;11726;50.122;8.832;2023-03-04T16:04:03;18.60;;;14.60;;
23113;SDS011;11726;50.122;8.832;2023-03-04T16:06:31;8.80;;;5.22;;
23113;SDS011;11726;50.122;8.832;2023-03-04T16:08:58;10.30;;;6.35;;
23113;SDS011;11726;50.122;8.832;2023-03-04T16:11:26;14.82;;;8.55;;
23113;SDS011;11726;50.122;8.832;2023-03-04T16:13:54;11.05;;;7.57;;
23113;SDS011;11726;50.122;8.832;2023-03-04T16:16:22;6.63;;;3.97;;
23113;SDS011;11726;50.122;8.832;2023-03-04T16:18:48;7.03;;;4.43;;
23113;SDS011;11726;50.122;8.832;2023-03-04T16:21:19;7.90;;;5.35;;
23113;SDS011;11726;50.122;8.832;2023-03-04T16:23:48;9.32;;;4.20;;
23113;SDS011;11726;50.122;8.832;2023-03-04T16:26:17;8.15;;;4.57;;
23113;SDS011;11726;50.122;8.832;2023-03-04T16:28:45;6.13;;;3.63;;
23113;SDS011;11726;50.122;8.832;2023-03-04T16:31:13;5.18;;;2.67;;
23113;SDS011;11726;50.122;8.832;2023-03-04T16:33:40;10.45;;;3.75;;